createdAt,value
2019-02-12T00:00:49.871Z,101157.09
2019-02-12T00:05:53.809Z,101172.00
2019-02-12T00:10:55.691Z,101182.42
2019-02-12T00:15:57.992Z,101188.58
2019-02-12T00:20:59.984Z,101191.50
2019-02-12T00:26:01.867Z,101186.08
2019-02-12T00:31:03.965Z,101184.58
2019-02-12T00:36:07.803Z,101187.52
2019-02-12T00:41:09.684Z,101201.66
2019-02-12T00:46:12.797Z,101218.61
2019-02-12T00:51:17.761Z,101207.45
2019-02-12T00:56:18.570Z,101202.98
2019-02-12T01:01:20.574Z,101218.82
2019-02-12T01:06:22.839Z,101237.33
2019-02-12T01:11:24.733Z,101231.17
2019-02-12T01:16:27.839Z,101238.83
2019-02-12T01:21:29.819Z,101229.16
2019-02-12T01:26:33.334Z,101239.51
2019-02-12T01:31:35.349Z,101245.66
2019-02-12T01:36:37.303Z,101243.27
2019-02-12T01:41:39.189Z,101251.22
2019-02-12T01:46:41.362Z,101237.59
2019-02-12T01:51:45.172Z,101253.50
2019-02-12T01:56:47.060Z,101247.47
2019-02-12T02:01:49.125Z,101249.45
2019-02-12T02:06:51.079Z,101254.28
2019-02-12T02:11:52.970Z,101261.02
2019-02-12T02:16:54.888Z,101264.25
2019-02-12T02:21:56.788Z,101268.89
2019-02-12T02:26:58.858Z,101267.17
2019-02-12T02:32:00.874Z,101275.72
2019-02-12T02:37:02.840Z,101272.88
2019-02-12T02:42:04.726Z,101281.50
2019-02-12T02:47:06.764Z,101285.56
2019-02-12T02:52:08.651Z,101304.72
2019-02-12T02:57:10.532Z,101293.36
2019-02-12T03:02:13.359Z,101298.65
2019-02-12T03:07:15.297Z,101288.69
2019-02-12T03:12:17.380Z,101295.16
2019-02-12T03:17:19.301Z,101321.23
2019-02-12T03:22:21.480Z,101322.82
2019-02-12T03:27:23.363Z,101340.48
2019-02-12T03:32:25.272Z,101352.27
2019-02-12T03:37:27.248Z,101361.69
2019-02-12T03:42:29.328Z,101343.66
2019-02-12T03:47:31.299Z,101354.73
2019-02-12T03:52:33.240Z,101351.63
2019-02-12T03:57:36.345Z,101333.23
2019-02-12T04:03:03.191Z,101333.02
2019-02-12T04:08:05.923Z,101332.73
2019-02-12T04:13:07.812Z,101333.99
2019-02-12T04:18:09.750Z,101332.48
2019-02-12T04:23:12.354Z,101337.80
2019-02-12T04:28:16.051Z,101340.08
2019-02-12T04:33:18.014Z,101333.25
2019-02-12T04:38:20.110Z,101345.68
2019-02-12T04:43:21.997Z,101343.80
2019-02-12T04:48:23.901Z,101343.80
2019-02-12T04:53:25.815Z,101336.09
2019-02-12T04:58:27.721Z,101338.48
2019-02-12T05:03:29.723Z,101353.08
2019-02-12T05:09:10.855Z,101360.86
2019-02-12T05:14:12.762Z,101362.75
2019-02-12T05:19:15.168Z,101354.77
2019-02-12T05:24:17.047Z,101370.34
2019-02-12T05:29:18.953Z,101350.80
2019-02-12T05:34:20.994Z,101353.24
2019-02-12T05:39:22.906Z,101369.70
2019-02-12T05:44:24.748Z,101390.86
2019-02-12T05:49:26.712Z,101398.16
2019-02-12T05:54:28.607Z,101407.81
2019-02-12T05:59:30.600Z,101411.23
2019-02-12T06:04:32.508Z,101410.81
2019-02-12T06:09:34.616Z,101428.23
2019-02-12T06:14:36.513Z,101431.30
2019-02-12T06:19:38.462Z,101433.51
2019-02-12T06:24:40.467Z,101429.36
2019-02-12T06:29:42.412Z,101435.75
2019-02-12T06:34:44.346Z,101423.89
2019-02-12T06:39:46.297Z,101436.23
2019-02-12T06:44:48.210Z,101454.37
2019-02-12T06:49:50.171Z,101450.36
2019-02-12T06:54:52.055Z,101465.28
2019-02-12T06:59:53.971Z,101453.02
2019-02-12T07:04:55.878Z,101460.02
2019-02-12T07:10:19.519Z,101467.56
2019-02-12T07:15:40.978Z,101476.27
2019-02-12T07:21:08.437Z,101495.75
2019-02-12T07:27:06.928Z,101503.94
2019-02-12T07:32:34.197Z,101508.63
2019-02-12T07:38:18.712Z,101512.80
2019-02-12T07:44:04.971Z,101510.45
2019-02-12T07:50:00.431Z,101517.77
2019-02-12T07:55:44.485Z,101517.69
2019-02-12T08:01:20.647Z,101526.17
2019-02-12T08:06:32.481Z,101538.59
2019-02-12T08:11:42.849Z,101549.39
2019-02-12T08:17:21.206Z,101563.23
2019-02-12T08:22:59.302Z,101584.76
2019-02-12T08:28:17.986Z,101584.16
2019-02-12T08:33:52.229Z,101583.80
2019-02-12T08:39:04.304Z,101574.97
2019-02-12T08:44:33.543Z,101572.66
2019-02-12T08:56:09.102Z,101572.20
2019-02-12T09:02:05.247Z,101572.69
2019-02-12T09:07:27.257Z,101572.69
2019-02-12T09:12:43.646Z,101594.92
2019-02-12T09:18:01.034Z,101603.64
2019-02-12T09:23:45.064Z,101609.72
2019-02-12T09:28:57.175Z,101614.09
2019-02-12T09:34:45.152Z,101614.09
2019-02-12T09:40:19.120Z,101623.61
2019-02-12T09:45:51.335Z,101623.61
2019-02-12T09:51:26.730Z,101633.39
2019-02-12T09:57:05.852Z,101663.60
2019-02-12T10:02:22.870Z,101663.60
2019-02-12T10:07:38.258Z,101661.52
2019-02-12T10:13:02.167Z,101669.11
2019-02-12T10:18:13.137Z,101685.09
2019-02-12T10:24:03.399Z,101691.72
2019-02-12T10:29:30.891Z,101704.85
2019-02-12T10:34:32.808Z,101691.05
2019-02-12T10:39:34.755Z,101692.12
2019-02-12T10:44:36.971Z,101683.37
2019-02-12T10:49:38.893Z,101699.82
2019-02-12T10:54:40.815Z,101711.03
2019-02-12T10:59:42.725Z,101703.89
2019-02-12T11:04:44.717Z,101703.61
2019-02-12T11:09:47.852Z,101705.75
2019-02-12T11:14:49.775Z,101705.75
2019-02-12T11:19:51.731Z,101711.69
2019-02-12T11:24:53.694Z,101720.64
2019-02-12T11:29:55.693Z,101738.23
2019-02-12T11:34:57.694Z,101721.91
2019-02-12T11:39:59.623Z,101714.69
2019-02-12T11:45:01.645Z,101709.05
2019-02-12T11:50:03.813Z,101707.45
2019-02-12T11:55:06.827Z,101705.28
2019-02-12T12:00:10.345Z,101696.88
2019-02-12T12:05:12.472Z,101696.88
2019-02-12T12:10:14.799Z,101705.70
2019-02-12T12:15:16.685Z,101712.16
2019-02-12T12:20:18.651Z,101717.50
2019-02-12T12:25:20.813Z,101723.77
2019-02-12T12:30:22.776Z,101720.69
2019-02-12T12:35:24.796Z,101721.61
2019-02-12T12:40:26.752Z,101733.60
2019-02-12T12:45:28.646Z,101743.89
2019-02-12T12:50:30.552Z,101728.19
2019-02-12T12:55:32.515Z,101722.19
2019-02-12T13:00:34.731Z,101732.28
2019-02-12T13:05:36.872Z,101728.13
2019-02-12T13:10:39.021Z,101734.83
2019-02-12T13:15:41.156Z,101731.00
2019-02-12T13:20:43.182Z,101726.11
2019-02-12T13:25:45.127Z,101728.27
2019-02-12T13:30:47.052Z,101733.55
2019-02-12T13:35:49.159Z,101740.53
2019-02-12T13:40:51.078Z,101740.16
2019-02-12T13:45:53.971Z,101743.40
2019-02-12T13:50:55.893Z,101754.09
2019-02-12T13:55:57.833Z,101750.72
2019-02-12T14:00:59.749Z,101757.27
2019-02-12T14:06:01.714Z,101768.50
2019-02-12T14:11:03.700Z,101787.39
2019-02-12T14:16:05.615Z,101791.61
2019-02-12T14:21:08.127Z,101793.92
2019-02-12T14:26:11.163Z,101805.64
2019-02-12T14:31:13.290Z,101812.98
2019-02-12T14:36:15.283Z,101819.45
2019-02-12T14:41:17.244Z,101823.91
2019-02-12T14:46:19.417Z,101827.13
2019-02-12T14:51:21.322Z,101828.84
2019-02-12T14:56:24.313Z,101820.56
2019-02-12T15:01:26.601Z,101831.80
2019-02-12T15:06:28.520Z,101830.47
2019-02-12T15:11:30.638Z,101830.17
2019-02-12T15:16:32.585Z,101843.63
2019-02-12T15:21:34.483Z,101846.56
2019-02-12T15:26:36.579Z,101852.56
2019-02-12T15:31:39.719Z,101855.91
2019-02-12T15:36:41.783Z,101857.66
2019-02-12T15:41:43.695Z,101866.59
2019-02-12T15:46:45.754Z,101875.53
2019-02-12T15:51:48.954Z,101884.05
2019-02-12T15:56:51.101Z,101884.36
2019-02-12T16:01:53.000Z,101882.34
2019-02-12T16:06:55.116Z,101883.38
2019-02-12T16:11:57.102Z,101888.22
2019-02-12T16:16:59.024Z,101899.41
2019-02-12T16:22:01.110Z,101892.44
2019-02-12T16:27:03.001Z,101894.23
2019-02-12T16:32:04.889Z,101899.48
2019-02-12T16:37:07.425Z,101905.28
2019-02-12T16:42:09.326Z,101906.26
2019-02-12T16:47:11.457Z,101917.58
2019-02-12T16:52:20.692Z,101913.04
2019-02-12T16:57:17.510Z,101916.30
2019-02-12T17:02:19.393Z,101920.06
2019-02-12T17:07:22.466Z,101930.98
2019-02-12T17:12:24.337Z,101937.19
2019-02-12T17:17:26.464Z,101940.70
2019-02-12T17:22:28.412Z,101939.30
2019-02-12T17:27:30.362Z,101950.62
2019-02-12T17:32:32.813Z,101961.61
2019-02-12T17:37:34.782Z,101968.12
2019-02-12T17:42:36.943Z,101974.19
2019-02-12T17:47:39.053Z,101976.87
2019-02-12T17:52:41.166Z,101988.94
2019-02-12T17:57:43.143Z,101991.80
2019-02-12T18:02:45.088Z,101997.66
2019-02-12T18:07:47.001Z,102001.92
2019-02-12T18:12:48.898Z,101997.72
2019-02-12T18:17:50.841Z,102007.89
2019-02-12T18:22:52.811Z,102002.95
2019-02-12T18:27:54.753Z,101998.90
2019-02-12T18:32:56.656Z,102008.20
2019-02-12T18:37:58.616Z,102004.23
2019-02-12T18:43:00.515Z,102003.32
2019-02-12T18:48:02.577Z,101999.54
2019-02-12T18:53:04.620Z,102010.80
2019-02-12T18:58:06.662Z,102009.59
2019-02-12T19:03:08.702Z,102004.78
2019-02-12T19:08:10.813Z,102017.44
2019-02-12T19:13:12.701Z,102025.61
2019-02-12T19:18:18.034Z,102025.77
2019-02-12T19:23:21.056Z,102032.41
2019-02-12T19:28:23.580Z,102026.47
2019-02-12T19:33:25.613Z,102023.59
2019-02-12T19:38:27.536Z,102023.59
2019-02-12T19:43:31.564Z,102025.06
2019-02-12T19:48:33.510Z,102033.73
2019-02-12T19:53:36.425Z,102033.17
2019-02-12T19:58:38.329Z,102033.17
2019-02-12T20:03:41.321Z,102032.46
2019-02-12T20:08:43.237Z,102028.59
2019-02-12T20:13:45.183Z,102020.39
2019-02-12T20:18:47.100Z,102020.39
2019-02-12T20:23:49.006Z,102032.78
2019-02-12T20:28:51.004Z,102032.64
2019-02-12T20:33:57.170Z,102041.61
2019-02-12T20:38:56.787Z,102038.50
2019-02-12T20:43:58.953Z,102027.56
2019-02-12T20:49:00.901Z,102044.55
2019-02-12T20:54:02.892Z,102049.69
2019-02-12T20:59:04.981Z,102052.59
2019-02-12T21:04:06.987Z,102060.16
2019-02-12T21:09:08.906Z,102060.16
2019-02-12T21:14:10.827Z,102075.41
2019-02-12T21:19:12.873Z,102078.39
2019-02-12T21:24:15.991Z,102072.38
2019-02-12T21:29:17.936Z,102067.91
2019-02-12T21:34:20.148Z,102067.91
2019-02-12T21:39:23.453Z,102053.45
2019-02-12T21:44:25.356Z,102069.95
2019-02-12T21:49:27.398Z,102065.72
2019-02-12T21:54:29.432Z,102058.70
2019-02-12T21:59:31.333Z,102062.73
2019-02-12T22:04:33.217Z,102066.44
2019-02-12T22:09:35.128Z,102071.81
2019-02-12T22:14:37.146Z,102068.38
2019-02-12T22:19:39.089Z,102067.27
2019-02-12T22:24:41.324Z,102058.05
2019-02-12T22:29:43.243Z,102057.27
2019-02-12T22:34:45.275Z,102071.27
2019-02-12T22:39:47.213Z,102079.56
2019-02-12T22:44:49.241Z,102080.40
2019-02-12T22:49:51.773Z,102087.75
2019-02-12T22:54:53.683Z,102077.12
2019-02-12T22:59:55.721Z,102082.83
2019-02-12T23:04:57.842Z,102086.60
2019-02-12T23:10:01.172Z,102077.59
2019-02-12T23:15:05.426Z,102088.52
2019-02-12T23:20:08.025Z,102083.45
2019-02-12T23:25:10.135Z,102100.17
2019-02-12T23:30:12.155Z,102101.04
2019-02-12T23:35:14.187Z,102099.96
2019-02-12T23:40:16.702Z,102091.20
2019-02-12T23:45:18.699Z,102086.51
2019-02-12T23:50:20.708Z,102082.36
2019-02-12T23:55:25.279Z,102091.28
